Time;durP1;ratioP1;P1;durP2;ratioP2;P2;SDS_P1;SDS_P2;PMS_P1;PMS_P2;Temp;Humidity;BMP_temperature;BMP_pressure;BME280_temperature;BME280_humidity;BME280_pressure;Samples;Min_cycle;Max_cycle;Signal;HPM_P1;HPM_P2
2022/06/25 00:00:47;;;;;;;1.30;1.05;;;15.70;99.90;;;;;;5070787;28;20205;-89
2022/06/25 00:03:23;;;;;;;0.68;0.68;;;15.70;99.90;;;;;;5077578;28;20197;-88
2022/06/25 00:06:06;;;;;;;4.28;0.88;;;15.70;99.90;;;;;;5068973;28;20200;-88
2022/06/25 00:08:38;;;;;;;1.48;0.90;;;15.60;99.90;;;;;;5075109;28;20656;-88
2022/06/25 00:11:06;;;;;;;1.67;0.90;;;15.60;99.90;;;;;;5077066;28;20201;-88
2022/06/25 00:13:35;;;;;;;2.17;0.88;;;15.60;99.90;;;;;;5066041;28;20255;-88
2022/06/25 00:16:35;;;;;;;0.80;0.80;;;15.50;99.90;;;;;;5075226;28;20197;-88
2022/06/25 00:19:11;;;;;;;1.00;0.90;;;15.50;99.90;;;;;;5061610;28;20193;-88
2022/06/25 00:21:41;;;;;;;2.65;1.00;;;15.50;99.90;;;;;;5077096;28;20201;-88
2022/06/25 00:24:19;;;;;;;2.20;0.70;;;15.50;99.90;;;;;;5075849;28;20193;-88
2022/06/25 00:26:59;;;;;;;1.10;1.00;;;15.60;99.90;;;;;;5075603;28;20211;-89
2022/06/25 00:29:47;;;;;;;0.80;0.80;;;15.50;99.90;;;;;;5082586;28;20220;-88
2022/06/25 00:32:24;;;;;;;0.85;0.80;;;15.40;99.90;;;;;;5068458;28;20683;-88
2022/06/25 00:34:53;;;;;;;2.05;0.80;;;15.50;99.90;;;;;;5047372;28;20220;-89
2022/06/25 00:37:20;;;;;;;2.53;0.85;;;15.50;99.90;;;;;;5071874;28;20732;-88
2022/06/25 00:40:13;;;;;;;1.30;0.80;;;15.50;99.90;;;;;;5075795;28;20202;-88
2022/06/25 00:42:50;;;;;;;0.93;0.85;;;15.50;99.90;;;;;;5077507;28;20224;-88
2022/06/25 00:45:17;;;;;;;0.70;0.70;;;15.40;99.90;;;;;;5063752;28;20229;-88
2022/06/25 00:47:44;;;;;;;1.27;0.90;;;15.40;99.90;;;;;;5061809;28;20209;-88
2022/06/25 00:50:11;;;;;;;0.70;0.70;;;15.50;99.90;;;;;;5073444;28;20201;-88
2022/06/25 00:52:42;;;;;;;1.13;0.80;;;15.60;99.90;;;;;;5081588;28;20201;-88
2022/06/25 00:55:30;;;;;;;2.03;1.00;;;15.60;99.90;;;;;;5079159;28;20220;-88
2022/06/25 00:58:01;;;;;;;1.80;1.00;;;15.60;99.90;;;;;;5078189;28;20197;-88
2022/06/25 01:00:30;;;;;;;4.38;0.95;;;15.60;99.90;;;;;;5079861;28;20219;-88
2022/06/25 01:03:00;;;;;;;1.60;0.82;;;15.60;99.90;;;;;;5077015;28;20596;-88
2022/06/25 01:05:59;;;;;;;1.33;0.95;;;15.60;99.90;;;;;;5074028;28;20197;-88
2022/06/25 01:08:30;;;;;;;2.83;1.10;;;15.60;99.90;;;;;;5075326;28;20205;-88
2022/06/25 01:11:47;;;;;;;1.25;0.80;;;15.60;99.90;;;;;;5080858;28;20624;-88
2022/06/25 01:14:25;;;;;;;0.95;0.95;;;15.60;99.90;;;;;;5067669;28;20221;-88
2022/06/25 01:17:07;;;;;;;0.88;0.88;;;15.60;99.90;;;;;;5060835;28;20228;-88
2022/06/25 01:19:42;;;;;;;2.50;0.98;;;15.60;99.90;;;;;;5073416;28;20212;-88
2022/06/25 01:22:19;;;;;;;2.08;0.70;;;15.50;99.90;;;;;;5076908;28;20209;-88
2022/06/25 01:25:00;;;;;;;1.13;0.90;;;15.50;99.90;;;;;;5073964;28;20656;-88
2022/06/25 01:27:29;;;;;;;2.15;0.90;;;15.50;99.90;;;;;;5042369;28;20194;-88
2022/06/25 01:30:14;;;;;;;3.25;1.10;;;15.40;99.90;;;;;;5078309;28;20236;-88
2022/06/25 01:32:54;;;;;;;3.83;1.00;;;15.40;99.90;;;;;;5077631;28;20557;-88
2022/06/25 01:35:20;;;;;;;1.00;0.90;;;15.50;99.90;;;;;;5075433;28;20210;-88
2022/06/25 01:37:49;;;;;;;1.67;1.10;;;15.50;99.90;;;;;;5078764;28;20208;-88
2022/06/25 01:40:16;;;;;;;1.60;1.00;;;15.50;99.90;;;;;;5086152;28;20224;-87
2022/06/25 01:42:59;;;;;;;3.30;1.00;;;15.40;99.90;;;;;;5073489;28;20229;-88
2022/06/25 01:45:31;;;;;;;0.77;0.77;;;15.40;99.90;;;;;;5069082;28;20570;-88
2022/06/25 01:47:58;;;;;;;1.65;0.93;;;15.50;99.90;;;;;;5064049;28;20202;-88
2022/06/25 01:50:26;;;;;;;0.80;0.80;;;15.50;99.90;;;;;;5073302;28;20204;-88
2022/06/25 01:52:54;;;;;;;1.42;0.95;;;15.50;99.90;;;;;;5079522;28;20197;-88
2022/06/25 01:55:41;;;;;;;2.08;1.08;;;15.50;99.90;;;;;;5089247;28;20217;-88
2022/06/25 01:58:12;;;;;;;0.95;0.82;;;15.50;99.90;;;;;;5078028;28;20201;-88
2022/06/25 02:00:42;;;;;;;1.42;1.00;;;15.50;99.90;;;;;;5091507;28;20193;-88
2022/06/25 02:03:18;;;;;;;3.15;0.90;;;15.60;99.90;;;;;;5095371;28;20211;-88
2022/06/25 02:06:00;;;;;;;0.88;0.80;;;15.60;99.90;;;;;;5081997;28;20197;-88
2022/06/25 02:08:33;;;;;;;1.00;1.00;;;15.60;99.90;;;;;;5060381;28;20217;-88
2022/06/25 02:11:07;;;;;;;1.10;0.85;;;15.50;99.90;;;;;;5093115;28;20254;-88
2022/06/25 02:13:34;;;;;;;3.45;0.90;;;15.50;99.90;;;;;;5092760;28;20190;-88
2022/06/25 02:16:01;;;;;;;2.47;1.10;;;15.50;99.90;;;;;;5076434;28;20193;-88
2022/06/25 02:18:54;;;;;;;1.30;1.20;;;15.50;99.90;;;;;;5078344;28;20656;-88
2022/06/25 02:21:36;;;;;;;1.00;0.98;;;15.50;99.90;;;;;;5080512;28;20254;-88
2022/06/25 02:24:19;;;;;;;1.08;1.02;;;15.50;99.90;;;;;;5072512;28;20200;-88
2022/06/25 02:26:48;;;;;;;3.78;0.90;;;15.50;99.90;;;;;;5074138;28;20208;-88
2022/06/25 02:29:15;;;;;;;0.88;0.88;;;15.50;99.90;;;;;;5076324;28;20215;-88
2022/06/25 02:31:48;;;;;;;1.30;1.20;;;15.50;99.90;;;;;;5076735;28;20199;-88
2022/06/25 02:34:23;;;;;;;2.05;0.90;;;15.50;99.90;;;;;;5073527;28;20584;-88
2022/06/25 02:36:51;;;;;;;1.88;1.00;;;15.60;99.90;;;;;;5087768;28;20200;-88
2022/06/25 02:39:19;;;;;;;1.23;1.13;;;15.60;99.90;;;;;;5057930;28;20289;-88
2022/06/25 02:41:46;;;;;;;1.13;1.02;;;15.60;99.90;;;;;;5071822;28;20273;-88
2022/06/25 02:44:13;;;;;;;0.85;0.85;;;15.60;99.90;;;;;;5054125;28;20198;-88
2022/06/25 02:46:54;;;;;;;1.80;1.20;;;15.60;99.90;;;;;;5078219;28;20195;-88
2022/06/25 02:49:30;;;;;;;2.65;0.98;;;15.70;99.90;;;;;;5075957;28;20201;-88
2022/06/25 02:52:12;;;;;;;1.20;1.10;;;15.60;99.90;;;;;;5079702;28;20197;-88
2022/06/25 02:55:13;;;;;;;0.98;0.90;;;15.60;99.90;;;;;;5074827;28;20205;-88
2022/06/25 03:00:36;;;;;;;1.63;0.90;;;15.50;99.90;;;;;;5073363;28;20259;-88
2022/06/25 03:03:03;;;;;;;2.42;1.08;;;15.50;99.90;;;;;;5072747;28;20208;-88
2022/06/25 03:05:30;;;;;;;1.85;1.30;;;15.40;99.90;;;;;;5078481;28;20204;-88
2022/06/25 03:07:56;;;;;;;1.10;1.00;;;15.40;99.90;;;;;;5075426;28;20201;-88
2022/06/25 03:10:31;;;;;;;2.88;1.20;;;15.40;99.90;;;;;;5076215;28;20599;-88
2022/06/25 03:13:00;;;;;;;2.55;1.20;;;15.40;99.90;;;;;;5076622;28;20200;-88
2022/06/25 03:15:30;;;;;;;1.30;1.20;;;15.40;99.90;;;;;;5075651;28;20225;-88
2022/06/25 03:18:00;;;;;;;3.70;1.17;;;15.30;99.90;;;;;;5084399;28;20201;-88
2022/06/25 03:20:30;;;;;;;1.10;1.10;;;15.40;99.90;;;;;;5061852;28;20233;-88
2022/06/25 03:23:00;;;;;;;1.20;1.10;;;15.40;99.90;;;;;;5071708;28;20841;-89
2022/06/25 03:25:27;;;;;;;0.98;0.90;;;15.50;99.90;;;;;;5089180;28;20188;-88
2022/06/25 03:27:55;;;;;;;3.55;1.00;;;15.50;99.90;;;;;;5097897;28;20224;-88
2022/06/25 03:30:30;;;;;;;1.77;1.10;;;15.50;99.90;;;;;;5084930;28;20202;-88
2022/06/25 03:32:57;;;;;;;1.15;1.00;;;15.50;99.90;;;;;;5077754;28;20227;-87
2022/06/25 03:35:24;;;;;;;1.98;1.02;;;15.50;99.90;;;;;;5089148;28;20225;-87
2022/06/25 03:38:11;;;;;;;1.73;1.40;;;15.50;99.90;;;;;;5081867;28;20197;-87
2022/06/25 03:40:48;;;;;;;3.05;1.23;;;15.50;99.90;;;;;;5075295;28;20644;-87
2022/06/25 03:43:25;;;;;;;1.63;1.20;;;15.50;99.90;;;;;;5081868;28;20319;-87
2022/06/25 03:46:00;;;;;;;2.40;1.15;;;15.50;99.90;;;;;;5082791;28;20211;-86
2022/06/25 03:48:27;;;;;;;1.38;1.27;;;15.50;99.90;;;;;;5081355;28;20216;-87
2022/06/25 03:50:54;;;;;;;1.02;0.85;;;15.50;99.90;;;;;;5090995;28;20308;-87
2022/06/25 03:53:30;;;;;;;2.75;1.20;;;15.60;99.90;;;;;;5095860;28;20201;-87
2022/06/25 03:55:57;;;;;;;1.83;1.20;;;15.60;99.90;;;;;;5089256;28;20227;-87
2022/06/25 03:58:25;;;;;;;2.25;1.10;;;15.60;99.90;;;;;;5080879;28;20193;-87
2022/06/25 04:00:52;;;;;;;1.65;0.90;;;15.60;99.90;;;;;;5084563;28;20188;-87
2022/06/25 04:03:24;;;;;;;1.45;1.08;;;15.60;99.90;;;;;;5064057;28;20208;-87
2022/06/25 04:05:54;;;;;;;2.38;1.00;;;15.60;99.90;;;;;;5081100;28;20201;-87
2022/06/25 04:08:46;;;;;;;2.50;0.98;;;15.70;99.90;;;;;;5073530;28;20204;-87
2022/06/25 04:11:13;;;;;;;0.98;0.90;;;15.60;99.90;;;;;;5075603;28;20196;-87
2022/06/25 04:14:01;;;;;;;10.25;1.33;;;15.60;99.90;;;;;;5082841;28;20259;-88
2022/06/25 04:16:30;;;;;;;1.38;1.08;;;15.60;99.90;;;;;;5077091;28;20212;-87
2022/06/25 04:18:57;;;;;;;0.75;0.75;;;15.60;99.90;;;;;;5091668;28;20204;-87
2022/06/25 04:21:30;;;;;;;0.88;0.88;;;15.70;99.90;;;;;;5079862;28;20713;-88
2022/06/25 04:24:13;;;;;;;1.50;1.00;;;15.70;99.90;;;;;;5080630;28;20653;-88
2022/06/25 04:26:40;;;;;;;4.38;1.00;;;15.70;99.90;;;;;;5081367;28;20200;-87
2022/06/25 04:32:30;;;;;;;1.20;1.00;;;15.80;99.90;;;;;;5088142;28;20249;-88
2022/06/25 04:34:57;;;;;;;1.00;1.00;;;15.90;99.90;;;;;;5051114;28;20250;-87
2022/06/25 04:37:24;;;;;;;1.20;1.10;;;15.90;99.90;;;;;;5066448;28;20200;-87
2022/06/25 04:39:54;;;;;;;1.73;1.10;;;16.00;99.90;;;;;;5077966;28;20204;-88
2022/06/25 04:42:53;;;;;;;1.20;1.00;;;16.00;99.90;;;;;;5097863;28;20216;-88
2022/06/25 04:45:53;;;;;;;4.18;1.10;;;16.10;99.90;;;;;;5067519;28;20207;-87
2022/06/25 04:48:22;;;;;;;1.33;1.23;;;16.20;99.90;;;;;;5080107;28;20200;-88
2022/06/25 04:51:00;;;;;;;1.10;1.05;;;16.20;99.90;;;;;;5080907;28;20198;-87
2022/06/25 04:53:27;;;;;;;3.72;1.30;;;16.20;99.80;;;;;;5096557;28;20198;-87
2022/06/25 04:55:54;;;;;;;4.50;1.08;;;16.10;99.80;;;;;;5079616;28;20224;-87
2022/06/25 04:58:22;;;;;;;1.02;0.93;;;16.10;99.90;;;;;;5074838;28;20203;-90
2022/06/25 05:00:54;;;;;;;1.25;1.15;;;16.20;99.90;;;;;;5072716;28;20194;-89
2022/06/25 05:03:43;;;;;;;1.98;1.48;;;16.10;99.80;;;;;;5056834;28;20918;-92
2022/06/25 05:06:11;;;;;;;3.83;1.08;;;16.10;99.90;;;;;;5065535;28;20198;-92
2022/06/25 05:08:42;;;;;;;1.83;1.20;;;16.10;99.90;;;;;;5050208;28;20201;-92
2022/06/25 05:11:35;;;;;;;4.20;1.25;;;16.30;99.90;;;;;;5054260;28;20207;-92
2022/06/25 05:14:23;;;;;;;2.35;1.02;;;16.50;99.70;;;;;;5067479;28;20567;-92
2022/06/25 05:17:17;;;;;;;3.58;1.02;;;16.80;98.70;;;;;;5072031;28;20584;-92
2022/06/25 05:19:49;;;;;;;1.77;1.08;;;16.90;98.20;;;;;;5060944;28;20266;-91
2022/06/25 05:22:24;;;;;;;1.95;1.02;;;17.10;98.10;;;;;;5070488;28;21460;-92
2022/06/25 05:24:54;;;;;;;2.15;1.05;;;17.20;98.00;;;;;;5066052;28;20205;-92
2022/06/25 05:27:30;;;;;;;1.45;1.10;;;17.20;97.70;;;;;;5073403;28;20221;-90
2022/06/25 05:29:57;;;;;;;1.33;1.20;;;17.40;97.50;;;;;;5053637;28;20205;-90
2022/06/25 05:32:30;;;;;;;1.20;1.10;;;17.60;96.40;;;;;;5067652;28;20197;-91
2022/06/25 05:35:20;;;;;;;1.90;1.13;;;17.50;96.70;;;;;;5068181;28;20213;-92
2022/06/25 05:37:55;;;;;;;3.33;1.00;;;17.60;96.20;;;;;;5063578;28;20683;-92
2022/06/25 05:40:24;;;;;;;1.13;1.00;;;17.80;95.60;;;;;;5068036;28;20237;-91
2022/06/25 05:43:00;;;;;;;3.60;0.98;;;18.00;94.80;;;;;;5073881;28;20226;-92
2022/06/25 05:45:36;;;;;;;1.38;1.00;;;18.00;94.60;;;;;;5061249;28;20558;-91
2022/06/25 05:48:12;;;;;;;1.50;1.30;;;18.20;93.80;;;;;;5065343;28;20198;-91
2022/06/25 05:51:02;;;;;;;1.17;0.90;;;18.30;93.10;;;;;;5069531;28;20251;-91
2022/06/25 05:53:49;;;;;;;0.95;0.88;;;18.50;93.70;;;;;;5015762;28;20211;-91
2022/06/25 05:56:24;;;;;;;0.80;0.80;;;18.60;92.60;;;;;;5006268;28;20227;-91
2022/06/25 05:58:55;;;;;;;0.93;0.93;;;18.80;92.30;;;;;;5013912;28;20697;-91
2022/06/25 06:01:36;;;;;;;1.35;0.88;;;18.90;91.60;;;;;;5017598;28;20196;-91
2022/06/25 06:12:54;;;;;;;1.15;0.90;;;18.80;90.80;;;;;;4960913;28;20217;-92
2022/06/25 06:15:30;;;;;;;1.10;1.00;;;19.00;90.90;;;;;;4959828;28;20352;-91
2022/06/25 06:18:06;;;;;;;0.98;0.90;;;19.00;91.80;;;;;;4961548;28;20256;-92
2022/06/25 06:20:36;;;;;;;0.88;0.85;;;18.80;91.90;;;;;;4962952;28;20679;-91
2022/06/25 06:25:56;;;;;;;1.15;1.05;;;19.00;91.10;;;;;;4924352;29;20203;-92
2022/06/25 06:31:29;;;;;;;1.15;1.05;;;18.80;92.40;;;;;;4939662;29;20222;-92
2022/06/25 06:34:06;;;;;;;1.83;1.05;;;18.90;92.00;;;;;;4947915;29;20205;-91
2022/06/25 06:36:42;;;;;;;1.83;1.00;;;18.80;92.30;;;;;;4948914;29;20232;-91
2022/06/25 06:47:59;;;;;;;2.10;1.80;;;18.70;90.90;;;;;;4895255;29;20202;-92
2022/06/25 06:59:26;;;;;;;1.88;1.00;;;19.40;90.30;;;;;;4854666;29;20227;-91
2022/06/25 07:02:06;;;;;;;1.00;0.90;;;19.50;88.00;;;;;;4868583;29;20209;-92
2022/06/25 07:05:01;;;;;;;1.30;0.90;;;19.50;90.90;;;;;;4871150;29;20211;-92
2022/06/25 07:07:28;;;;;;;3.70;1.00;;;19.60;90.20;;;;;;4860437;29;20205;-89
2022/06/25 07:10:07;;;;;;;3.15;1.08;;;19.80;87.70;;;;;;4864954;29;20212;-89
2022/06/25 07:12:33;;;;;;;1.63;1.20;;;20.10;85.70;;;;;;4868215;29;20287;-90
2022/06/25 07:15:09;;;;;;;3.80;1.30;;;20.20;86.60;;;;;;4861970;29;20320;-90
2022/06/25 07:17:54;;;;;;;3.47;1.17;;;20.10;85.80;;;;;;4863778;29;20292;-90
2022/06/25 07:20:30;;;;;;;3.17;1.20;;;20.50;80.10;;;;;;4958843;28;20283;-90
2022/06/25 07:22:57;;;;;;;1.88;0.95;;;20.70;80.60;;;;;;4968575;28;20196;-90
2022/06/25 07:25:36;;;;;;;1.75;1.10;;;21.00;79.80;;;;;;5009981;28;20201;-92
2022/06/25 07:28:04;;;;;;;1.90;1.45;;;21.10;74.30;;;;;;5059757;28;20259;-91
2022/06/25 07:30:55;;;;;;;1.25;0.80;;;21.30;69.00;;;;;;5050456;28;20212;-89
2022/06/25 07:33:24;;;;;;;2.55;1.05;;;21.40;69.60;;;;;;5060082;28;20193;-89
2022/06/25 07:36:07;;;;;;;2.22;1.35;;;21.50;72.00;;;;;;5070119;28;20229;-89
2022/06/25 07:38:53;;;;;;;8.25;7.22;;;21.60;70.90;;;;;;5061670;28;20246;-89
2022/06/25 07:41:20;;;;;;;8.55;5.75;;;21.80;64.00;;;;;;5064902;28;20233;-91
2022/06/25 07:43:54;;;;;;;1.75;1.25;;;22.00;59.80;;;;;;5067302;28;20201;-89
2022/06/25 07:46:49;;;;;;;1.80;1.00;;;22.20;57.90;;;;;;5078503;28;20711;-86
2022/06/25 07:49:16;;;;;;;1.58;1.48;;;22.10;57.80;;;;;;5047801;28;20217;-89
2022/06/25 07:51:56;;;;;;;2.15;1.10;;;22.10;59.00;;;;;;5071984;28;20201;-89
2022/06/25 07:54:47;;;;;;;1.00;1.00;;;22.30;58.00;;;;;;5065977;28;20630;-89
2022/06/25 07:57:24;;;;;;;1.23;1.10;;;22.30;58.00;;;;;;5059559;28;20229;-89
2022/06/25 08:00:07;;;;;;;1.58;1.20;;;22.10;54.60;;;;;;5046078;28;20193;-89
2022/06/25 08:02:50;;;;;;;1.58;1.17;;;22.30;57.00;;;;;;5065595;28;20216;-87
2022/06/25 08:05:36;;;;;;;1.55;1.10;;;22.50;52.50;;;;;;5026904;28;20201;-88
2022/06/25 08:08:06;;;;;;;2.65;1.30;;;22.50;46.20;;;;;;5068140;28;21491;-87
2022/06/25 08:10:42;;;;;;;3.72;1.05;;;22.50;46.00;;;;;;5061291;28;20554;-87
2022/06/25 08:13:29;;;;;;;1.10;1.00;;;22.60;46.20;;;;;;5072979;28;20193;-87
2022/06/25 08:16:00;;;;;;;2.00;1.05;;;22.50;46.50;;;;;;5076725;28;20212;-87
2022/06/25 08:18:38;;;;;;;2.78;0.90;;;22.70;44.60;;;;;;5078382;28;20234;-87
2022/06/25 08:21:06;;;;;;;1.13;1.02;;;22.90;41.40;;;;;;5073886;28;20250;-88
2022/06/25 08:23:33;;;;;;;2.15;1.20;;;24.20;35.60;;;;;;5056109;28;20248;-89
2022/06/25 08:26:00;;;;;;;1.13;1.10;;;26.20;28.70;;;;;;5059400;28;20200;-89
2022/06/25 08:28:30;;;;;;;2.83;1.40;;;28.00;23.20;;;;;;5068616;28;20292;-88
2022/06/25 08:30:57;;;;;;;2.83;1.38;;;29.80;17.20;;;;;;5040610;28;20236;-89
2022/06/25 08:33:37;;;;;;;2.00;1.60;;;31.00;17.20;;;;;;5073590;28;20704;-90
2022/06/25 08:36:05;;;;;;;2.00;1.60;;;31.60;13.00;;;;;;5063865;28;20215;-89
2022/06/25 08:39:05;;;;;;;1.75;1.65;;;31.10;14.70;;;;;;5043814;28;20205;-90
2022/06/25 08:41:54;;;;;;;1.95;1.80;;;30.10;14.60;;;;;;5064952;28;20223;-90
2022/06/25 08:44:31;;;;;;;1.90;1.80;;;32.00;12.70;;;;;;5083817;28;20256;-92
2022/06/25 08:52:31;;;;;;;2.15;2.05;;;34.30;9.10;;;;;;5060140;28;20209;-91
2022/06/25 08:55:01;;;;;;;2.55;2.45;;;34.90;8.60;;;;;;5065175;28;20207;-91
2022/06/25 08:57:36;;;;;;;3.97;2.50;;;35.50;7.70;;;;;;5044868;28;20220;-90
2022/06/25 09:00:03;;;;;;;29.92;23.75;;;35.10;9.50;;;;;;5073313;28;20563;-90
2022/06/25 09:02:43;;;;;;;167.88;152.52;;;34.80;8.30;;;;;;5075829;28;20193;-91
2022/06/25 09:05:11;;;;;;;159.32;145.55;;;35.00;7.90;;;;;;5072941;28;20193;-90
2022/06/25 09:07:54;;;;;;;4.00;3.70;;;35.20;8.20;;;;;;5075166;28;20208;-90
2022/06/25 09:10:43;;;;;;;9.48;8.75;;;34.80;7.10;;;;;;5072716;28;20578;-91
2022/06/25 09:13:23;;;;;;;16.77;15.18;;;35.00;9.00;;;;;;5048930;28;20605;-91
2022/06/25 09:16:00;;;;;;;21.40;19.65;;;33.70;8.90;;;;;;5059028;28;20217;-90
2022/06/25 09:27:55;;;;;;;5.28;4.78;;;33.70;9.70;;;;;;5063585;28;20188;-92
2022/06/25 09:30:32;;;;;;;3.38;3.08;;;33.10;9.90;;;;;;5066641;28;20197;-92
2022/06/25 09:33:30;;;;;;;2.50;2.30;;;32.90;10.70;;;;;;5053198;28;20244;-91
2022/06/25 09:36:24;;;;;;;2.20;2.10;;;33.60;9.60;;;;;;5075472;28;20919;-92
2022/06/25 09:39:13;;;;;;;3.40;2.40;;;32.90;11.20;;;;;;5067845;28;20671;-90
2022/06/25 09:42:24;;;;;;;5.15;4.68;;;32.80;12.90;;;;;;5065726;28;20227;-91
2022/06/25 09:45:12;;;;;;;4.13;2.30;;;33.40;10.50;;;;;;5056806;28;20196;-91
2022/06/25 09:47:44;;;;;;;2.30;2.10;;;31.20;11.70;;;;;;5057597;28;20201;-91
2022/06/25 09:50:19;;;;;;;2.15;2.05;;;30.60;13.30;;;;;;5067690;28;20208;-91
2022/06/25 09:56:22;;;;;;;2.60;2.40;;;30.20;14.10;;;;;;5071581;28;20258;-91
2022/06/25 09:59:18;;;;;;;2.72;2.58;;;30.10;13.90;;;;;;5061371;28;20197;-91
2022/06/25 10:02:04;;;;;;;2.70;2.50;;;30.20;13.90;;;;;;5073938;28;20258;-91
2022/06/25 10:04:31;;;;;;;2.70;2.60;;;30.90;16.00;;;;;;5074477;28;20679;-91
2022/06/25 10:07:18;;;;;;;3.95;3.75;;;31.30;14.10;;;;;;5076759;28;20200;-91
2022/06/25 10:09:54;;;;;;;3.42;3.22;;;32.10;14.70;;;;;;5065341;28;20204;-91
2022/06/25 10:15:13;;;;;;;2.88;2.67;;;31.40;11.90;;;;;;5074254;28;20196;-90
2022/06/25 10:17:41;;;;;;;2.30;2.10;;;30.60;13.30;;;;;;5084808;28;20239;-90
2022/06/25 10:20:19;;;;;;;1.95;1.85;;;30.40;13.80;;;;;;5077437;28;20193;-90
2022/06/25 10:22:51;;;;;;;1.95;1.73;;;30.80;11.90;;;;;;5073121;28;20185;-88
2022/06/25 10:25:21;;;;;;;1.77;1.67;;;29.60;16.40;;;;;;5079045;28;20204;-89
2022/06/25 10:27:52;;;;;;;2.95;1.80;;;28.90;16.10;;;;;;5074297;28;20559;-88
2022/06/25 10:30:49;;;;;;;1.77;1.67;;;29.40;16.70;;;;;;5084521;28;20648;-88
2022/06/25 10:33:17;;;;;;;2.22;1.80;;;30.60;14.40;;;;;;5072637;28;20193;-88
2022/06/25 10:35:49;;;;;;;1.90;1.80;;;30.10;14.40;;;;;;5071540;28;20197;-88
2022/06/25 10:38:30;;;;;;;2.63;1.58;;;28.90;16.10;;;;;;5064873;28;20197;-88
2022/06/25 10:43:58;;;;;;;1.92;1.25;;;27.30;17.10;;;;;;5066555;28;20198;-88
2022/06/25 10:46:42;;;;;;;1.45;1.35;;;27.30;18.40;;;;;;5073750;28;20303;-88
2022/06/25 10:49:11;;;;;;;1.35;1.23;;;26.80;18.40;;;;;;5073306;28;20238;-88
2022/06/25 10:52:17;;;;;;;1.10;1.00;;;27.00;22.20;;;;;;5070421;28;20609;-88
2022/06/25 10:55:12;;;;;;;1.73;1.00;;;27.50;19.50;;;;;;5074731;28;20215;-88
2022/06/25 10:58:21;;;;;;;3.22;1.55;;;28.00;19.40;;;;;;5056086;28;20260;-88
2022/06/25 11:01:02;;;;;;;2.20;1.38;;;29.30;16.30;;;;;;5068629;28;20276;-88
2022/06/25 11:03:46;;;;;;;2.38;1.85;;;29.60;17.60;;;;;;5069217;28;20254;-88
2022/06/25 11:06:48;;;;;;;4.78;4.45;;;28.90;16.10;;;;;;5061607;28;20746;-89
2022/06/25 11:09:17;;;;;;;6.15;3.28;;;28.60;16.00;;;;;;5058149;28;20201;-89
2022/06/25 11:11:55;;;;;;;2.60;1.40;;;27.60;17.50;;;;;;5069792;28;20295;-88
2022/06/25 11:14:24;;;;;;;2.70;1.70;;;27.00;20.00;;;;;;5072301;28;20203;-87
2022/06/25 11:16:55;;;;;;;7.72;7.00;;;26.20;21.30;;;;;;5074101;28;20240;-87
2022/06/25 11:19:30;;;;;;;3.17;2.03;;;25.90;20.50;;;;;;5082017;28;20193;-88
2022/06/25 11:22:01;;;;;;;1.80;1.30;;;25.40;21.00;;;;;;5068643;28;20192;-88
2022/06/25 11:24:32;;;;;;;4.10;1.50;;;25.40;21.80;;;;;;5070768;28;20203;-87
2022/06/25 11:30:18;;;;;;;3.83;2.22;;;26.10;22.60;;;;;;5071013;28;20238;-87
2022/06/25 11:33:14;;;;;;;6.00;5.38;;;26.20;20.90;;;;;;5065965;28;20192;-87
2022/06/25 11:35:45;;;;;;;5.25;2.65;;;26.00;22.20;;;;;;5067143;28;20211;-87
2022/06/25 11:38:21;;;;;;;2.15;1.95;;;25.50;21.80;;;;;;5073421;28;20602;-88
2022/06/25 11:40:48;;;;;;;2.83;2.60;;;25.20;21.60;;;;;;5068547;28;20365;-87
2022/06/25 11:43:28;;;;;;;2.88;2.42;;;25.00;24.70;;;;;;5051148;28;20632;-86
2022/06/25 11:46:01;;;;;;;10.80;9.30;;;24.90;26.70;;;;;;5071510;28;20208;-86
2022/06/25 11:48:38;;;;;;;4.07;2.15;;;25.10;21.90;;;;;;5063569;28;20977;-86
2022/06/25 11:51:07;;;;;;;3.30;1.85;;;25.40;26.20;;;;;;5042401;28;20660;-87
2022/06/25 11:53:54;;;;;;;5.72;5.18;;;25.20;22.60;;;;;;5066808;28;20225;-85
2022/06/25 11:56:21;;;;;;;1.95;1.35;;;25.60;21.80;;;;;;5055988;28;20780;-86
2022/06/25 11:58:48;;;;;;;3.85;1.67;;;25.60;23.00;;;;;;5070121;28;20204;-86
2022/06/25 12:01:28;;;;;;;3.08;1.73;;;25.40;21.20;;;;;;5071759;28;20204;-87
2022/06/25 12:04:03;;;;;;;2.20;1.88;;;25.60;21.20;;;;;;5070127;28;20204;-87
2022/06/25 12:06:37;;;;;;;1.52;1.30;;;25.80;20.00;;;;;;5051836;28;20297;-87
2022/06/25 12:09:06;;;;;;;1.08;1.08;;;25.70;22.20;;;;;;5069319;28;20220;-87
2022/06/25 12:11:55;;;;;;;2.33;1.40;;;26.00;20.90;;;;;;5068165;28;20664;-86
2022/06/25 12:14:36;;;;;;;1.15;1.10;;;26.40;19.10;;;;;;5067230;28;20202;-84
2022/06/25 12:17:06;;;;;;;3.30;1.40;;;26.10;19.90;;;;;;5068732;28;20215;-86
2022/06/25 12:19:47;;;;;;;1.73;1.40;;;26.50;19.80;;;;;;5059684;28;20197;-86
2022/06/25 12:22:31;;;;;;;1.60;1.50;;;26.20;20.90;;;;;;5070585;28;20899;-87
2022/06/25 12:25:13;;;;;;;1.83;1.38;;;26.50;19.60;;;;;;5063146;28;20205;-86
2022/06/25 12:27:50;;;;;;;1.88;1.17;;;26.70;20.00;;;;;;5066099;28;20246;-86
2022/06/25 12:30:22;;;;;;;1.77;1.30;;;26.40;18.60;;;;;;5061333;28;20622;-86
2022/06/25 12:32:57;;;;;;;2.63;1.23;;;25.60;19.80;;;;;;5072666;28;20189;-86
2022/06/25 12:35:33;;;;;;;4.43;1.42;;;25.10;23.70;;;;;;5071105;28;20211;-87
2022/06/25 12:38:18;;;;;;;1.40;1.30;;;24.60;24.10;;;;;;5077101;28;20212;-87
2022/06/25 12:40:52;;;;;;;1.92;1.23;;;24.50;23.80;;;;;;5068435;28;20247;-87
2022/06/25 12:43:25;;;;;;;4.50;1.50;;;24.70;22.50;;;;;;5073794;28;20197;-86
2022/06/25 12:46:09;;;;;;;3.03;1.50;;;24.90;23.70;;;;;;5046577;28;20649;-86
2022/06/25 12:48:36;;;;;;;3.10;1.45;;;24.90;25.70;;;;;;5076318;28;20209;-87
2022/06/25 12:51:15;;;;;;;1.55;1.30;;;24.90;24.30;;;;;;5072544;28;20567;-85
2022/06/25 12:53:45;;;;;;;1.80;1.40;;;25.20;25.50;;;;;;5070836;28;20189;-88
2022/06/25 12:56:20;;;;;;;2.05;1.20;;;25.60;24.80;;;;;;5071068;28;20212;-86
2022/06/25 12:58:57;;;;;;;2.00;1.50;;;26.00;23.10;;;;;;5068204;28;20188;-85
2022/06/25 13:01:32;;;;;;;2.00;1.55;;;26.00;21.60;;;;;;5065830;28;20656;-85
2022/06/25 13:04:06;;;;;;;1.63;1.50;;;26.00;21.60;;;;;;5062920;28;20635;-87
2022/06/25 13:06:35;;;;;;;1.33;1.23;;;26.30;21.10;;;;;;5066594;28;20193;-88
2022/06/25 13:09:42;;;;;;;2.10;1.30;;;26.50;23.20;;;;;;5047399;28;20204;-87
2022/06/25 13:12:13;;;;;;;1.38;1.27;;;26.60;20.10;;;;;;5062620;28;20196;-86
2022/06/25 13:14:41;;;;;;;3.08;1.30;;;26.50;18.70;;;;;;5070244;28;20212;-86
2022/06/25 13:17:12;;;;;;;1.27;1.13;;;26.10;20.90;;;;;;5063098;28;20209;-87
2022/06/25 13:20:12;;;;;;;1.35;1.25;;;26.00;22.00;;;;;;5068213;28;20197;-87
2022/06/25 13:22:41;;;;;;;2.42;2.20;;;26.10;20.10;;;;;;5064800;28;20197;-86
2022/06/25 13:25:09;;;;;;;1.10;1.00;;;26.00;21.70;;;;;;5064279;28;20242;-87
2022/06/25 13:27:48;;;;;;;1.55;1.25;;;26.20;19.30;;;;;;5040215;28;20252;-85
2022/06/25 13:30:18;;;;;;;1.45;1.10;;;26.10;20.00;;;;;;5066825;28;20597;-85
2022/06/25 13:32:54;;;;;;;1.83;1.52;;;26.10;20.10;;;;;;5072308;28;20209;-87
2022/06/25 13:36:06;;;;;;;1.20;1.10;;;25.90;20.20;;;;;;5058980;28;20201;-86
2022/06/25 13:38:50;;;;;;;2.28;1.40;;;25.90;20.00;;;;;;5070943;28;20309;-87
2022/06/25 13:41:18;;;;;;;1.50;1.40;;;25.80;21.40;;;;;;5071620;28;20223;-88
2022/06/25 13:43:53;;;;;;;1.05;1.02;;;26.00;22.00;;;;;;5088016;28;20201;-87
2022/06/25 13:46:21;;;;;;;1.70;1.27;;;26.00;21.80;;;;;;5073681;28;20193;-87
2022/06/25 13:48:48;;;;;;;1.33;1.20;;;25.90;22.00;;;;;;5071869;28;20197;-86
2022/06/25 13:51:16;;;;;;;1.75;1.40;;;25.50;23.50;;;;;;5072748;28;20201;-88
2022/06/25 13:54:17;;;;;;;2.75;1.50;;;25.20;23.70;;;;;;5075964;28;20197;-88
2022/06/25 13:57:18;;;;;;;2.10;1.30;;;24.90;24.40;;;;;;5058431;28;20201;-88
2022/06/25 13:59:48;;;;;;;1.92;1.48;;;25.10;23.10;;;;;;5071308;28;20326;-88
2022/06/25 14:02:15;;;;;;;2.13;1.15;;;25.30;23.40;;;;;;5075579;28;20204;-85
2022/06/25 14:04:42;;;;;;;1.45;1.35;;;25.60;23.80;;;;;;5065201;28;20206;-86
2022/06/25 14:07:13;;;;;;;1.30;1.20;;;25.60;22.90;;;;;;5070705;28;20720;-86
2022/06/25 14:09:42;;;;;;;1.48;1.33;;;25.80;22.80;;;;;;5076024;28;20201;-86
2022/06/25 14:12:24;;;;;;;3.42;1.30;;;25.80;21.70;;;;;;5074163;28;20196;-86
2022/06/25 14:15:07;;;;;;;1.30;1.10;;;25.80;22.30;;;;;;5086471;28;20207;-86
2022/06/25 14:17:36;;;;;;;1.30;1.20;;;25.70;21.90;;;;;;5074416;28;20692;-87
2022/06/25 14:20:12;;;;;;;1.38;1.10;;;25.70;22.10;;;;;;5064337;28;20667;-86
2022/06/25 14:22:42;;;;;;;1.30;1.10;;;25.60;22.20;;;;;;5072039;28;20201;-89
2022/06/25 14:25:24;;;;;;;1.20;1.10;;;25.40;22.10;;;;;;5084989;28;20200;-87
2022/06/25 14:28:04;;;;;;;1.20;1.10;;;25.10;22.90;;;;;;5070415;28;20539;-91
2022/06/25 14:34:18;;;;;;;1.63;1.10;;;24.70;23.60;;;;;;5070529;28;20356;-91
2022/06/25 14:45:37;;;;;;;1.65;1.10;;;24.90;24.20;;;;;;5031924;28;20617;-90
2022/06/25 14:48:29;;;;;;;4.90;3.65;;;24.80;25.60;;;;;;5033291;28;20210;-90
2022/06/25 14:51:12;;;;;;;1.35;1.25;;;24.90;25.10;;;;;;5030533;28;20214;-92